sensor_id;sensor_type;location;lat;lon;timestamp;P1;durP1;ratioP1;P2;durP2;ratioP2
59824;SDS011;45703;50.898;6.054;2023-09-30T00:00:08;8.65;;;4.57;;
59824;SDS011;45703;50.898;6.054;2023-09-30T00:02:34;10.38;;;5.22;;
59824;SDS011;45703;50.898;6.054;2023-09-30T00:04:59;10.52;;;4.72;;
59824;SDS011;45703;50.898;6.054;2023-09-30T00:07:25;10.70;;;5.25;;
59824;SDS011;45703;50.898;6.054;2023-09-30T00:09:51;10.05;;;5.70;;
59824;SDS011;45703;50.898;6.054;2023-09-30T00:12:17;9.75;;;5.30;;
59824;SDS011;45703;50.898;6.054;2023-09-30T00:14:42;10.13;;;5.30;;
59824;SDS011;45703;50.898;6.054;2023-09-30T00:17:10;10.45;;;5.38;;
59824;SDS011;45703;50.898;6.054;2023-09-30T00:19:36;10.15;;;5.15;;
59824;SDS011;45703;50.898;6.054;2023-09-30T00:22:03;10.70;;;5.85;;
59824;SDS011;45703;50.898;6.054;2023-09-30T00:24:31;11.00;;;5.45;;
59824;SDS011;45703;50.898;6.054;2023-09-30T00:26:58;11.50;;;6.32;;
59824;SDS011;45703;50.898;6.054;2023-09-30T00:29:24;10.77;;;5.15;;
59824;SDS011;45703;50.898;6.054;2023-09-30T00:31:49;11.77;;;5.47;;
59824;SDS011;45703;50.898;6.054;2023-09-30T00:34:17;9.18;;;5.18;;
59824;SDS011;45703;50.898;6.054;2023-09-30T00:36:43;11.57;;;5.93;;
59824;SDS011;45703;50.898;6.054;2023-09-30T00:39:12;9.95;;;5.30;;
59824;SDS011;45703;50.898;6.054;2023-09-30T00:41:40;10.98;;;6.25;;
59824;SDS011;45703;50.898;6.054;2023-09-30T00:44:05;11.05;;;6.15;;
59824;SDS011;45703;50.898;6.054;2023-09-30T00:46:34;12.10;;;6.53;;
59824;SDS011;45703;50.898;6.054;2023-09-30T00:49:02;10.18;;;5.55;;
59824;SDS011;45703;50.898;6.054;2023-09-30T00:51:28;12.70;;;6.60;;
59824;SDS011;45703;50.898;6.054;2023-09-30T00:53:55;12.25;;;6.00;;
59824;SDS011;45703;50.898;6.054;2023-09-30T00:56:24;11.98;;;6.57;;
59824;SDS011;45703;50.898;6.054;2023-09-30T00:58:54;11.20;;;6.28;;
59824;SDS011;45703;50.898;6.054;2023-09-30T01:01:20;11.50;;;5.97;;
59824;SDS011;45703;50.898;6.054;2023-09-30T01:03:46;13.07;;;6.10;;
59824;SDS011;45703;50.898;6.054;2023-09-30T01:06:12;12.23;;;6.25;;
59824;SDS011;45703;50.898;6.054;2023-09-30T01:08:41;11.40;;;6.05;;
59824;SDS011;45703;50.898;6.054;2023-09-30T01:11:06;10.80;;;5.68;;
59824;SDS011;45703;50.898;6.054;2023-09-30T01:13:35;10.95;;;6.57;;
59824;SDS011;45703;50.898;6.054;2023-09-30T01:16:05;11.93;;;6.60;;
59824;SDS011;45703;50.898;6.054;2023-09-30T01:18:37;12.30;;;6.68;;
59824;SDS011;45703;50.898;6.054;2023-09-30T01:21:04;11.25;;;6.03;;
59824;SDS011;45703;50.898;6.054;2023-09-30T01:23:31;13.77;;;6.68;;
59824;SDS011;45703;50.898;6.054;2023-09-30T01:26:00;12.15;;;6.80;;
59824;SDS011;45703;50.898;6.054;2023-09-30T01:28:30;12.15;;;6.50;;
59824;SDS011;45703;50.898;6.054;2023-09-30T01:30:56;12.18;;;6.00;;
59824;SDS011;45703;50.898;6.054;2023-09-30T01:33:22;12.57;;;6.88;;
59824;SDS011;45703;50.898;6.054;2023-09-30T01:35:50;12.30;;;6.78;;
59824;SDS011;45703;50.898;6.054;2023-09-30T01:38:15;13.35;;;6.95;;
59824;SDS011;45703;50.898;6.054;2023-09-30T01:40:41;13.32;;;6.53;;
59824;SDS011;45703;50.898;6.054;2023-09-30T01:43:07;12.48;;;6.78;;
59824;SDS011;45703;50.898;6.054;2023-09-30T01:45:33;12.63;;;6.75;;
59824;SDS011;45703;50.898;6.054;2023-09-30T01:48:00;12.45;;;6.53;;
59824;SDS011;45703;50.898;6.054;2023-09-30T01:50:27;13.32;;;6.72;;
59824;SDS011;45703;50.898;6.054;2023-09-30T01:52:55;12.68;;;6.72;;
59824;SDS011;45703;50.898;6.054;2023-09-30T01:55:20;10.85;;;5.75;;
59824;SDS011;45703;50.898;6.054;2023-09-30T01:57:46;12.77;;;6.30;;
59824;SDS011;45703;50.898;6.054;2023-09-30T02:00:13;10.25;;;5.85;;
59824;SDS011;45703;50.898;6.054;2023-09-30T02:02:39;10.63;;;6.10;;
59824;SDS011;45703;50.898;6.054;2023-09-30T02:05:05;12.43;;;6.45;;
59824;SDS011;45703;50.898;6.054;2023-09-30T02:07:33;11.55;;;5.65;;
59824;SDS011;45703;50.898;6.054;2023-09-30T02:09:59;10.40;;;5.55;;
59824;SDS011;45703;50.898;6.054;2023-09-30T02:12:27;11.30;;;5.70;;
59824;SDS011;45703;50.898;6.054;2023-09-30T02:14:56;10.25;;;5.72;;
59824;SDS011;45703;50.898;6.054;2023-09-30T02:17:23;11.85;;;5.95;;
59824;SDS011;45703;50.898;6.054;2023-09-30T02:19:48;11.35;;;5.88;;
59824;SDS011;45703;50.898;6.054;2023-09-30T02:22:15;10.52;;;5.57;;
59824;SDS011;45703;50.898;6.054;2023-09-30T02:24:40;11.35;;;5.60;;
59824;SDS011;45703;50.898;6.054;2023-09-30T02:27:06;11.52;;;5.47;;
59824;SDS011;45703;50.898;6.054;2023-09-30T02:29:31;10.05;;;5.40;;
59824;SDS011;45703;50.898;6.054;2023-09-30T02:31:56;11.55;;;5.75;;
59824;SDS011;45703;50.898;6.054;2023-09-30T02:34:25;9.82;;;5.05;;
59824;SDS011;45703;50.898;6.054;2023-09-30T02:36:51;10.60;;;5.97;;
59824;SDS011;45703;50.898;6.054;2023-09-30T02:39:19;11.13;;;5.50;;
59824;SDS011;45703;50.898;6.054;2023-09-30T02:41:44;14.95;;;6.55;;
59824;SDS011;45703;50.898;6.054;2023-09-30T02:44:10;14.45;;;6.57;;
59824;SDS011;45703;50.898;6.054;2023-09-30T02:46:35;11.13;;;5.60;;
59824;SDS011;45703;50.898;6.054;2023-09-30T02:49:03;10.13;;;5.68;;
59824;SDS011;45703;50.898;6.054;2023-09-30T02:51:31;11.00;;;5.32;;
59824;SDS011;45703;50.898;6.054;2023-09-30T02:53:56;10.70;;;5.70;;
59824;SDS011;45703;50.898;6.054;2023-09-30T02:56:24;10.75;;;5.43;;
59824;SDS011;45703;50.898;6.054;2023-09-30T02:58:52;11.65;;;6.13;;
59824;SDS011;45703;50.898;6.054;2023-09-30T03:01:17;13.23;;;6.05;;
59824;SDS011;45703;50.898;6.054;2023-09-30T03:03:48;14.10;;;6.50;;
59824;SDS011;45703;50.898;6.054;2023-09-30T03:06:13;13.88;;;6.78;;
59824;SDS011;45703;50.898;6.054;2023-09-30T03:08:41;12.13;;;6.18;;
59824;SDS011;45703;50.898;6.054;2023-09-30T03:11:06;13.18;;;7.35;;
59824;SDS011;45703;50.898;6.054;2023-09-30T03:13:34;12.23;;;6.82;;
59824;SDS011;45703;50.898;6.054;2023-09-30T03:16:00;12.80;;;6.97;;
59824;SDS011;45703;50.898;6.054;2023-09-30T03:18:26;12.50;;;6.70;;
59824;SDS011;45703;50.898;6.054;2023-09-30T03:21:01;13.52;;;7.30;;
59824;SDS011;45703;50.898;6.054;2023-09-30T03:23:33;11.68;;;6.38;;
59824;SDS011;45703;50.898;6.054;2023-09-30T03:25:59;12.88;;;6.82;;
59824;SDS011;45703;50.898;6.054;2023-09-30T03:28:25;13.75;;;6.95;;
59824;SDS011;45703;50.898;6.054;2023-09-30T03:30:51;12.43;;;6.60;;
59824;SDS011;45703;50.898;6.054;2023-09-30T03:33:17;15.48;;;6.95;;
59824;SDS011;45703;50.898;6.054;2023-09-30T03:35:42;11.80;;;5.82;;
59824;SDS011;45703;50.898;6.054;2023-09-30T03:38:11;14.02;;;6.80;;
59824;SDS011;45703;50.898;6.054;2023-09-30T03:40:40;12.32;;;6.78;;
59824;SDS011;45703;50.898;6.054;2023-09-30T03:43:12;11.18;;;6.03;;
59824;SDS011;45703;50.898;6.054;2023-09-30T03:45:42;11.43;;;6.47;;
59824;SDS011;45703;50.898;6.054;2023-09-30T03:48:07;11.70;;;6.07;;
59824;SDS011;45703;50.898;6.054;2023-09-30T03:50:35;14.15;;;7.50;;
59824;SDS011;45703;50.898;6.054;2023-09-30T03:53:01;11.90;;;6.40;;
59824;SDS011;45703;50.898;6.054;2023-09-30T03:55:28;14.30;;;7.07;;
59824;SDS011;45703;50.898;6.054;2023-09-30T03:57:57;15.02;;;6.75;;
59824;SDS011;45703;50.898;6.054;2023-09-30T04:00:23;11.27;;;6.28;;
59824;SDS011;45703;50.898;6.054;2023-09-30T04:02:56;11.95;;;6.25;;
59824;SDS011;45703;50.898;6.054;2023-09-30T04:05:24;11.98;;;6.30;;
59824;SDS011;45703;50.898;6.054;2023-09-30T04:07:59;13.68;;;6.57;;
59824;SDS011;45703;50.898;6.054;2023-09-30T04:10:24;11.73;;;6.43;;
59824;SDS011;45703;50.898;6.054;2023-09-30T04:13:13;10.85;;;5.82;;
59824;SDS011;45703;50.898;6.054;2023-09-30T04:15:42;11.38;;;6.07;;
59824;SDS011;45703;50.898;6.054;2023-09-30T04:18:12;12.70;;;6.72;;
59824;SDS011;45703;50.898;6.054;2023-09-30T04:20:37;12.82;;;6.65;;
59824;SDS011;45703;50.898;6.054;2023-09-30T04:23:06;12.18;;;6.57;;
59824;SDS011;45703;50.898;6.054;2023-09-30T04:25:34;12.43;;;7.03;;
59824;SDS011;45703;50.898;6.054;2023-09-30T04:28:00;12.35;;;7.10;;
59824;SDS011;45703;50.898;6.054;2023-09-30T04:30:28;12.52;;;6.95;;
59824;SDS011;45703;50.898;6.054;2023-09-30T04:32:57;12.30;;;7.30;;
59824;SDS011;45703;50.898;6.054;2023-09-30T04:35:25;13.50;;;7.40;;
59824;SDS011;45703;50.898;6.054;2023-09-30T04:37:51;13.85;;;7.90;;
59824;SDS011;45703;50.898;6.054;2023-09-30T04:40:17;13.18;;;6.57;;
59824;SDS011;45703;50.898;6.054;2023-09-30T04:42:46;14.85;;;7.43;;
59824;SDS011;45703;50.898;6.054;2023-09-30T04:45:13;14.27;;;7.72;;
59824;SDS011;45703;50.898;6.054;2023-09-30T04:47:45;14.25;;;7.55;;
59824;SDS011;45703;50.898;6.054;2023-09-30T04:50:14;15.68;;;7.55;;
59824;SDS011;45703;50.898;6.054;2023-09-30T04:52:42;13.07;;;7.25;;
59824;SDS011;45703;50.898;6.054;2023-09-30T04:55:19;13.30;;;6.80;;
59824;SDS011;45703;50.898;6.054;2023-09-30T04:57:52;14.32;;;8.10;;
59824;SDS011;45703;50.898;6.054;2023-09-30T05:00:18;13.55;;;7.50;;
59824;SDS011;45703;50.898;6.054;2023-09-30T05:03:02;13.63;;;7.57;;
59824;SDS011;45703;50.898;6.054;2023-09-30T05:05:30;13.50;;;7.18;;
59824;SDS011;45703;50.898;6.054;2023-09-30T05:07:55;14.43;;;7.90;;
59824;SDS011;45703;50.898;6.054;2023-09-30T05:10:24;13.10;;;7.18;;
59824;SDS011;45703;50.898;6.054;2023-09-30T05:12:58;14.23;;;7.40;;
59824;SDS011;45703;50.898;6.054;2023-09-30T05:15:29;14.95;;;7.68;;
59824;SDS011;45703;50.898;6.054;2023-09-30T05:17:57;14.02;;;7.20;;
59824;SDS011;45703;50.898;6.054;2023-09-30T05:20:23;15.52;;;7.00;;
59824;SDS011;45703;50.898;6.054;2023-09-30T05:22:49;12.45;;;7.15;;
59824;SDS011;45703;50.898;6.054;2023-09-30T05:25:16;14.93;;;7.55;;
59824;SDS011;45703;50.898;6.054;2023-09-30T05:27:42;14.13;;;7.60;;
59824;SDS011;45703;50.898;6.054;2023-09-30T05:30:12;14.35;;;7.03;;
59824;SDS011;45703;50.898;6.054;2023-09-30T05:32:45;13.43;;;7.10;;
59824;SDS011;45703;50.898;6.054;2023-09-30T05:35:13;14.38;;;7.57;;
59824;SDS011;45703;50.898;6.054;2023-09-30T05:37:39;14.93;;;7.05;;
59824;SDS011;45703;50.898;6.054;2023-09-30T05:40:05;14.25;;;7.70;;
59824;SDS011;45703;50.898;6.054;2023-09-30T05:42:41;13.25;;;6.95;;
59824;SDS011;45703;50.898;6.054;2023-09-30T05:45:12;13.15;;;7.20;;
59824;SDS011;45703;50.898;6.054;2023-09-30T05:47:38;13.45;;;6.97;;
59824;SDS011;45703;50.898;6.054;2023-09-30T05:50:09;13.02;;;6.82;;
59824;SDS011;45703;50.898;6.054;2023-09-30T05:52:39;13.18;;;7.22;;
59824;SDS011;45703;50.898;6.054;2023-09-30T05:55:13;14.85;;;7.90;;
59824;SDS011;45703;50.898;6.054;2023-09-30T05:57:41;13.60;;;7.03;;
59824;SDS011;45703;50.898;6.054;2023-09-30T06:00:07;13.27;;;7.10;;
59824;SDS011;45703;50.898;6.054;2023-09-30T06:02:39;13.35;;;7.35;;
59824;SDS011;45703;50.898;6.054;2023-09-30T06:05:11;14.77;;;7.32;;
59824;SDS011;45703;50.898;6.054;2023-09-30T06:07:37;15.45;;;7.50;;
59824;SDS011;45703;50.898;6.054;2023-09-30T06:10:04;13.82;;;7.20;;
59824;SDS011;45703;50.898;6.054;2023-09-30T06:12:30;12.95;;;6.90;;
59824;SDS011;45703;50.898;6.054;2023-09-30T06:14:56;12.50;;;6.60;;
59824;SDS011;45703;50.898;6.054;2023-09-30T06:17:21;14.05;;;6.72;;
59824;SDS011;45703;50.898;6.054;2023-09-30T06:19:47;13.63;;;7.10;;
59824;SDS011;45703;50.898;6.054;2023-09-30T06:22:15;14.05;;;7.53;;
59824;SDS011;45703;50.898;6.054;2023-09-30T06:24:44;13.40;;;6.53;;
59824;SDS011;45703;50.898;6.054;2023-09-30T06:27:09;13.77;;;6.90;;
59824;SDS011;45703;50.898;6.054;2023-09-30T06:29:38;14.63;;;7.35;;
59824;SDS011;45703;50.898;6.054;2023-09-30T06:32:03;13.60;;;6.80;;
59824;SDS011;45703;50.898;6.054;2023-09-30T06:34:29;14.57;;;7.32;;
59824;SDS011;45703;50.898;6.054;2023-09-30T06:36:59;14.50;;;7.22;;
59824;SDS011;45703;50.898;6.054;2023-09-30T06:39:25;14.60;;;7.43;;
59824;SDS011;45703;50.898;6.054;2023-09-30T06:41:57;14.38;;;7.30;;
59824;SDS011;45703;50.898;6.054;2023-09-30T06:44:22;13.43;;;7.18;;
59824;SDS011;45703;50.898;6.054;2023-09-30T06:46:50;13.88;;;6.88;;
59824;SDS011;45703;50.898;6.054;2023-09-30T06:49:15;13.25;;;7.28;;
59824;SDS011;45703;50.898;6.054;2023-09-30T06:51:41;15.50;;;7.88;;
59824;SDS011;45703;50.898;6.054;2023-09-30T06:54:16;14.10;;;6.88;;
59824;SDS011;45703;50.898;6.054;2023-09-30T06:56:42;13.73;;;7.47;;
59824;SDS011;45703;50.898;6.054;2023-09-30T06:59:07;13.95;;;7.60;;
59824;SDS011;45703;50.898;6.054;2023-09-30T07:01:33;14.30;;;7.75;;
59824;SDS011;45703;50.898;6.054;2023-09-30T07:03:58;13.45;;;6.40;;
59824;SDS011;45703;50.898;6.054;2023-09-30T07:06:24;13.98;;;7.53;;
59824;SDS011;45703;50.898;6.054;2023-09-30T07:08:52;11.95;;;6.50;;
59824;SDS011;45703;50.898;6.054;2023-09-30T07:11:30;13.50;;;6.88;;
59824;SDS011;45703;50.898;6.054;2023-09-30T07:13:58;12.82;;;7.13;;
59824;SDS011;45703;50.898;6.054;2023-09-30T07:16:26;13.10;;;6.95;;
59824;SDS011;45703;50.898;6.054;2023-09-30T07:18:51;12.20;;;7.00;;
59824;SDS011;45703;50.898;6.054;2023-09-30T07:21:17;13.40;;;7.30;;
59824;SDS011;45703;50.898;6.054;2023-09-30T07:23:43;13.45;;;7.47;;
59824;SDS011;45703;50.898;6.054;2023-09-30T07:26:11;11.30;;;6.20;;
59824;SDS011;45703;50.898;6.054;2023-09-30T07:28:36;12.82;;;6.75;;
59824;SDS011;45703;50.898;6.054;2023-09-30T07:31:02;13.70;;;7.07;;
59824;SDS011;45703;50.898;6.054;2023-09-30T07:33:28;12.85;;;7.20;;
59824;SDS011;45703;50.898;6.054;2023-09-30T07:35:53;11.32;;;6.05;;
59824;SDS011;45703;50.898;6.054;2023-09-30T07:38:20;11.73;;;6.38;;
59824;SDS011;45703;50.898;6.054;2023-09-30T07:40:46;13.60;;;7.05;;
59824;SDS011;45703;50.898;6.054;2023-09-30T07:43:14;13.38;;;7.30;;
59824;SDS011;45703;50.898;6.054;2023-09-30T07:45:40;14.95;;;7.60;;
59824;SDS011;45703;50.898;6.054;2023-09-30T07:48:09;13.02;;;6.88;;
59824;SDS011;45703;50.898;6.054;2023-09-30T07:50:35;12.40;;;6.70;;
59824;SDS011;45703;50.898;6.054;2023-09-30T07:53:04;11.52;;;6.90;;
59824;SDS011;45703;50.898;6.054;2023-09-30T07:55:29;12.68;;;6.93;;
59824;SDS011;45703;50.898;6.054;2023-09-30T07:57:54;12.95;;;6.53;;
59824;SDS011;45703;50.898;6.054;2023-09-30T08:00:22;12.23;;;6.07;;
59824;SDS011;45703;50.898;6.054;2023-09-30T08:02:48;11.18;;;6.32;;
59824;SDS011;45703;50.898;6.054;2023-09-30T08:05:15;13.65;;;6.13;;
59824;SDS011;45703;50.898;6.054;2023-09-30T08:07:40;11.38;;;5.90;;
59824;SDS011;45703;50.898;6.054;2023-09-30T08:10:06;10.88;;;5.78;;
59824;SDS011;45703;50.898;6.054;2023-09-30T08:12:37;11.15;;;5.75;;
59824;SDS011;45703;50.898;6.054;2023-09-30T08:15:03;12.15;;;5.60;;
59824;SDS011;45703;50.898;6.054;2023-09-30T08:17:28;10.65;;;5.32;;
59824;SDS011;45703;50.898;6.054;2023-09-30T08:19:54;10.48;;;5.47;;
59824;SDS011;45703;50.898;6.054;2023-09-30T08:22:20;9.57;;;4.57;;
59824;SDS011;45703;50.898;6.054;2023-09-30T08:24:46;11.23;;;5.35;;
59824;SDS011;45703;50.898;6.054;2023-09-30T08:27:11;9.70;;;4.75;;
59824;SDS011;45703;50.898;6.054;2023-09-30T08:29:37;9.73;;;4.75;;
59824;SDS011;45703;50.898;6.054;2023-09-30T08:32:02;10.10;;;4.63;;
59824;SDS011;45703;50.898;6.054;2023-09-30T08:34:30;9.35;;;4.38;;
59824;SDS011;45703;50.898;6.054;2023-09-30T08:36:58;10.60;;;4.90;;
59824;SDS011;45703;50.898;6.054;2023-09-30T08:39:24;11.25;;;4.55;;
59824;SDS011;45703;50.898;6.054;2023-09-30T08:41:50;10.23;;;5.30;;
59824;SDS011;45703;50.898;6.054;2023-09-30T08:44:15;10.10;;;4.50;;
59824;SDS011;45703;50.898;6.054;2023-09-30T08:46:41;9.77;;;4.75;;
59824;SDS011;45703;50.898;6.054;2023-09-30T08:49:07;10.05;;;4.65;;
59824;SDS011;45703;50.898;6.054;2023-09-30T08:51:33;9.27;;;4.18;;
59824;SDS011;45703;50.898;6.054;2023-09-30T08:54:00;9.32;;;3.90;;
59824;SDS011;45703;50.898;6.054;2023-09-30T08:56:29;8.52;;;3.67;;
59824;SDS011;45703;50.898;6.054;2023-09-30T08:58:58;8.88;;;3.83;;
59824;SDS011;45703;50.898;6.054;2023-09-30T09:01:28;9.07;;;4.18;;
59824;SDS011;45703;50.898;6.054;2023-09-30T09:03:55;9.52;;;4.03;;
59824;SDS011;45703;50.898;6.054;2023-09-30T09:06:24;10.43;;;3.75;;
59824;SDS011;45703;50.898;6.054;2023-09-30T09:08:51;7.43;;;3.30;;
59824;SDS011;45703;50.898;6.054;2023-09-30T09:11:17;7.72;;;3.25;;
59824;SDS011;45703;50.898;6.054;2023-09-30T09:13:50;8.65;;;3.67;;
59824;SDS011;45703;50.898;6.054;2023-09-30T09:16:20;9.27;;;3.55;;
59824;SDS011;45703;50.898;6.054;2023-09-30T09:18:46;9.23;;;3.55;;
59824;SDS011;45703;50.898;6.054;2023-09-30T09:23:55;8.40;;;3.38;;
59824;SDS011;45703;50.898;6.054;2023-09-30T09:26:33;8.55;;;3.40;;
59824;SDS011;45703;50.898;6.054;2023-09-30T09:29:03;9.68;;;3.50;;
59824;SDS011;45703;50.898;6.054;2023-09-30T09:31:34;9.23;;;3.70;;
59824;SDS011;45703;50.898;6.054;2023-09-30T09:34:12;9.00;;;3.30;;
59824;SDS011;45703;50.898;6.054;2023-09-30T09:36:42;9.57;;;3.38;;
59824;SDS011;45703;50.898;6.054;2023-09-30T09:39:09;7.95;;;3.17;;
59824;SDS011;45703;50.898;6.054;2023-09-30T09:41:53;8.85;;;3.30;;
59824;SDS011;45703;50.898;6.054;2023-09-30T09:44:21;9.70;;;3.30;;
59824;SDS011;45703;50.898;6.054;2023-09-30T09:46:48;8.77;;;3.22;;
59824;SDS011;45703;50.898;6.054;2023-09-30T09:49:18;8.52;;;3.40;;
59824;SDS011;45703;50.898;6.054;2023-09-30T09:51:45;9.48;;;3.28;;
59824;SDS011;45703;50.898;6.054;2023-09-30T09:54:14;7.97;;;2.58;;
59824;SDS011;45703;50.898;6.054;2023-09-30T09:56:42;7.30;;;2.63;;
59824;SDS011;45703;50.898;6.054;2023-09-30T09:59:13;8.20;;;2.53;;
59824;SDS011;45703;50.898;6.054;2023-09-30T10:01:41;7.47;;;2.60;;
59824;SDS011;45703;50.898;6.054;2023-09-30T10:04:07;8.60;;;2.83;;
59824;SDS011;45703;50.898;6.054;2023-09-30T10:06:36;8.88;;;2.88;;
59824;SDS011;45703;50.898;6.054;2023-09-30T10:09:08;7.45;;;2.75;;
59824;SDS011;45703;50.898;6.054;2023-09-30T10:11:36;9.23;;;3.28;;
59824;SDS011;45703;50.898;6.054;2023-09-30T10:14:04;7.90;;;2.92;;
59824;SDS011;45703;50.898;6.054;2023-09-30T10:19:08;9.27;;;2.80;;
59824;SDS011;45703;50.898;6.054;2023-09-30T10:21:34;7.80;;;2.70;;
59824;SDS011;45703;50.898;6.054;2023-09-30T10:24:28;7.25;;;2.60;;
59824;SDS011;45703;50.898;6.054;2023-09-30T10:36:01;13.45;;;5.03;;
59824;SDS011;45703;50.898;6.054;2023-09-30T10:40:52;19.88;;;9.85;;
59824;SDS011;45703;50.898;6.054;2023-09-30T10:43:31;10.23;;;4.45;;
59824;SDS011;45703;50.898;6.054;2023-09-30T10:45:57;9.60;;;4.22;;
59824;SDS011;45703;50.898;6.054;2023-09-30T10:51:00;9.82;;;3.80;;
59824;SDS011;45703;50.898;6.054;2023-09-30T10:53:41;8.55;;;3.50;;
59824;SDS011;45703;50.898;6.054;2023-09-30T10:56:08;9.52;;;3.47;;
59824;SDS011;45703;50.898;6.054;2023-09-30T10:58:44;8.20;;;3.33;;
59824;SDS011;45703;50.898;6.054;2023-09-30T11:01:23;8.68;;;3.65;;
59824;SDS011;45703;50.898;6.054;2023-09-30T11:03:49;8.48;;;3.28;;
59824;SDS011;45703;50.898;6.054;2023-09-30T11:06:16;8.45;;;3.20;;
59824;SDS011;45703;50.898;6.054;2023-09-30T11:08:45;7.63;;;2.80;;
59824;SDS011;45703;50.898;6.054;2023-09-30T11:11:33;7.60;;;2.97;;
59824;SDS011;45703;50.898;6.054;2023-09-30T11:14:03;8.07;;;3.30;;
59824;SDS011;45703;50.898;6.054;2023-09-30T11:16:40;9.00;;;3.10;;
59824;SDS011;45703;50.898;6.054;2023-09-30T11:19:06;8.70;;;3.28;;
59824;SDS011;45703;50.898;6.054;2023-09-30T11:21:33;7.53;;;3.00;;
59824;SDS011;45703;50.898;6.054;2023-09-30T11:24:00;11.18;;;3.50;;
59824;SDS011;45703;50.898;6.054;2023-09-30T11:26:31;8.73;;;3.42;;
59824;SDS011;45703;50.898;6.054;2023-09-30T11:29:04;8.40;;;3.00;;
59824;SDS011;45703;50.898;6.054;2023-09-30T11:31:39;12.20;;;3.70;;
59824;SDS011;45703;50.898;6.054;2023-09-30T11:34:06;9.73;;;3.75;;
59824;SDS011;45703;50.898;6.054;2023-09-30T11:36:35;10.30;;;3.53;;
59824;SDS011;45703;50.898;6.054;2023-09-30T11:39:03;8.20;;;3.08;;
59824;SDS011;45703;50.898;6.054;2023-09-30T11:41:32;8.73;;;3.03;;
59824;SDS011;45703;50.898;6.054;2023-09-30T11:44:00;8.50;;;3.05;;
59824;SDS011;45703;50.898;6.054;2023-09-30T11:48:56;8.38;;;2.80;;
59824;SDS011;45703;50.898;6.054;2023-09-30T11:51:25;8.75;;;3.00;;
59824;SDS011;45703;50.898;6.054;2023-09-30T11:53:51;8.70;;;2.40;;
59824;SDS011;45703;50.898;6.054;2023-09-30T11:56:22;8.20;;;2.58;;
59824;SDS011;45703;50.898;6.054;2023-09-30T11:58:53;8.73;;;2.90;;
59824;SDS011;45703;50.898;6.054;2023-09-30T12:01:21;8.77;;;3.38;;
59824;SDS011;45703;50.898;6.054;2023-09-30T12:03:49;7.57;;;2.85;;
59824;SDS011;45703;50.898;6.054;2023-09-30T12:06:18;8.38;;;3.20;;
59824;SDS011;45703;50.898;6.054;2023-09-30T12:08:48;9.02;;;3.53;;
59824;SDS011;45703;50.898;6.054;2023-09-30T12:11:16;8.10;;;3.13;;
59824;SDS011;45703;50.898;6.054;2023-09-30T12:13:45;9.02;;;2.85;;
59824;SDS011;45703;50.898;6.054;2023-09-30T12:18:39;8.18;;;3.00;;
59824;SDS011;45703;50.898;6.054;2023-09-30T12:21:09;9.95;;;3.22;;
59824;SDS011;45703;50.898;6.054;2023-09-30T12:23:36;8.90;;;3.13;;
59824;SDS011;45703;50.898;6.054;2023-09-30T12:26:02;9.18;;;3.22;;
59824;SDS011;45703;50.898;6.054;2023-09-30T12:28:31;8.55;;;3.05;;
59824;SDS011;45703;50.898;6.054;2023-09-30T12:30:57;9.02;;;3.20;;
59824;SDS011;45703;50.898;6.054;2023-09-30T12:33:26;10.05;;;3.75;;
59824;SDS011;45703;50.898;6.054;2023-09-30T12:35:55;9.40;;;3.88;;
59824;SDS011;45703;50.898;6.054;2023-09-30T12:38:20;9.30;;;3.97;;
59824;SDS011;45703;50.898;6.054;2023-09-30T12:40:52;9.98;;;3.80;;
59824;SDS011;45703;50.898;6.054;2023-09-30T12:43:18;8.57;;;3.53;;
59824;SDS011;45703;50.898;6.054;2023-09-30T12:45:47;10.32;;;4.35;;
59824;SDS011;45703;50.898;6.054;2023-09-30T12:48:15;9.88;;;3.63;;
59824;SDS011;45703;50.898;6.054;2023-09-30T12:50:44;7.78;;;3.40;;
59824;SDS011;45703;50.898;6.054;2023-09-30T12:53:13;8.32;;;3.22;;
59824;SDS011;45703;50.898;6.054;2023-09-30T12:55:41;9.05;;;3.63;;
59824;SDS011;45703;50.898;6.054;2023-09-30T12:58:10;9.73;;;3.85;;
59824;SDS011;45703;50.898;6.054;2023-09-30T13:00:40;9.07;;;3.38;;
59824;SDS011;45703;50.898;6.054;2023-09-30T13:03:05;8.07;;;3.25;;
59824;SDS011;45703;50.898;6.054;2023-09-30T13:05:32;7.22;;;3.10;;
59824;SDS011;45703;50.898;6.054;2023-09-30T13:07:58;9.40;;;3.83;;
59824;SDS011;45703;50.898;6.054;2023-09-30T13:10:23;9.20;;;3.53;;
59824;SDS011;45703;50.898;6.054;2023-09-30T13:12:50;8.85;;;3.85;;
59824;SDS011;45703;50.898;6.054;2023-09-30T13:15:16;10.75;;;3.65;;
59824;SDS011;45703;50.898;6.054;2023-09-30T13:17:44;8.48;;;3.65;;
59824;SDS011;45703;50.898;6.054;2023-09-30T13:20:10;9.65;;;3.80;;
59824;SDS011;45703;50.898;6.054;2023-09-30T13:22:39;9.57;;;3.50;;
59824;SDS011;45703;50.898;6.054;2023-09-30T13:25:05;10.07;;;3.47;;
59824;SDS011;45703;50.898;6.054;2023-09-30T13:27:33;12.10;;;3.70;;
59824;SDS011;45703;50.898;6.054;2023-09-30T13:29:59;9.73;;;3.63;;
59824;SDS011;45703;50.898;6.054;2023-09-30T13:32:28;9.40;;;3.85;;
59824;SDS011;45703;50.898;6.054;2023-09-30T13:34:55;9.27;;;3.55;;
59824;SDS011;45703;50.898;6.054;2023-09-30T13:37:24;9.65;;;3.65;;
59824;SDS011;45703;50.898;6.054;2023-09-30T13:39:55;7.90;;;3.50;;
59824;SDS011;45703;50.898;6.054;2023-09-30T13:42:20;8.50;;;3.35;;
59824;SDS011;45703;50.898;6.054;2023-09-30T13:44:45;8.80;;;3.45;;
59824;SDS011;45703;50.898;6.054;2023-09-30T13:47:11;9.98;;;3.90;;
59824;SDS011;45703;50.898;6.054;2023-09-30T13:49:36;9.32;;;4.00;;
59824;SDS011;45703;50.898;6.054;2023-09-30T13:52:01;9.27;;;3.80;;
59824;SDS011;45703;50.898;6.054;2023-09-30T13:54:27;9.73;;;3.88;;
59824;SDS011;45703;50.898;6.054;2023-09-30T13:56:52;8.60;;;4.22;;
59824;SDS011;45703;50.898;6.054;2023-09-30T13:59:18;8.18;;;3.20;;
59824;SDS011;45703;50.898;6.054;2023-09-30T14:01:45;9.60;;;3.75;;
59824;SDS011;45703;50.898;6.054;2023-09-30T14:04:11;10.60;;;3.80;;
59824;SDS011;45703;50.898;6.054;2023-09-30T14:06:36;9.23;;;3.72;;
59824;SDS011;45703;50.898;6.054;2023-09-30T14:09:03;9.05;;;3.50;;
59824;SDS011;45703;50.898;6.054;2023-09-30T14:11:28;8.95;;;3.50;;
59824;SDS011;45703;50.898;6.054;2023-09-30T14:13:55;8.10;;;3.30;;
59824;SDS011;45703;50.898;6.054;2023-09-30T14:16:21;9.20;;;3.85;;
59824;SDS011;45703;50.898;6.054;2023-09-30T14:18:46;8.65;;;3.58;;
59824;SDS011;45703;50.898;6.054;2023-09-30T14:21:12;8.70;;;3.55;;
59824;SDS011;45703;50.898;6.054;2023-09-30T14:23:38;8.35;;;3.60;;
59824;SDS011;45703;50.898;6.054;2023-09-30T14:26:03;8.73;;;3.90;;
59824;SDS011;45703;50.898;6.054;2023-09-30T14:28:35;8.70;;;3.88;;
59824;SDS011;45703;50.898;6.054;2023-09-30T14:31:04;8.88;;;3.97;;
59824;SDS011;45703;50.898;6.054;2023-09-30T14:33:30;9.13;;;4.03;;
59824;SDS011;45703;50.898;6.054;2023-09-30T14:35:55;9.75;;;3.60;;
59824;SDS011;45703;50.898;6.054;2023-09-30T14:38:23;9.93;;;4.07;;
59824;SDS011;45703;50.898;6.054;2023-09-30T14:40:49;8.32;;;3.78;;
59824;SDS011;45703;50.898;6.054;2023-09-30T14:43:15;8.00;;;3.72;;
59824;SDS011;45703;50.898;6.054;2023-09-30T14:45:43;10.38;;;4.05;;
59824;SDS011;45703;50.898;6.054;2023-09-30T14:48:09;8.10;;;3.38;;
59824;SDS011;45703;50.898;6.054;2023-09-30T14:50:35;8.70;;;3.25;;
59824;SDS011;45703;50.898;6.054;2023-09-30T14:53:02;9.10;;;3.15;;
59824;SDS011;45703;50.898;6.054;2023-09-30T14:55:31;9.07;;;3.30;;
59824;SDS011;45703;50.898;6.054;2023-09-30T14:57:56;8.60;;;3.30;;
59824;SDS011;45703;50.898;6.054;2023-09-30T15:00:22;8.07;;;3.72;;
59824;SDS011;45703;50.898;6.054;2023-09-30T15:02:49;8.07;;;3.28;;
59824;SDS011;45703;50.898;6.054;2023-09-30T15:05:18;9.63;;;3.85;;
59824;SDS011;45703;50.898;6.054;2023-09-30T15:07:43;9.25;;;3.65;;